»·PEaware :: N410VB 7S0-U82

N410VB :: 7S0-U82

FLIGHT INFORMATION

Flight Status: Arrived
Operator: Privately registered:
United States
More flights under this callsign
Pilot: Ben H. (9170)
Aircraft: GULFSTREAM 690 COMMANDER 840/900
(AC90)
More flights by this aircraft type
Origin: 7S0 Ronan
United States
Destination: U82 Council Mun
United States
More flights between these airports :: More routes between these airports
Route: +
File this flight plan on PilotEdge
Remarks:
Altitude:
(Current/Filed)
16,500ft
Speed:
(Current/Filed)
200kts
Departed: 22-Mar-19 06:17 PM
Arrived: 22-Mar-19 07:10 PM
Distance/Time
Traveled:
195nm/0:53
Distance/Time
To Go:
Arrived

Flight Plot

Page will automatically refresh every two minutes.

Flight plan parsing failed; only flown route is shown


Map Options




Map Legend


Flown Route
Filed Route
Departure Airport
Arrival Airport
Navaid (VOR, NDB)
Fix

Horizontal Profiles

Position Reports

Time Latitude Longitude Heading Altitude Ground
Speed
22-Mar-19 18:03 47.568192 -114.103084 88 3073ft 0kts
22-Mar-19 18:04 47.568192 -114.103084 88 3073ft 0kts
22-Mar-19 18:12 47.568192 -114.103084 88 3073ft 0kts
22-Mar-19 18:13 47.569163 -114.102065 358 3075ft 27kts
22-Mar-19 18:14 47.573525 -114.102053 13 3081ft 0kts
22-Mar-19 18:15 47.573555 -114.101102 174 3084ft 0kts
22-Mar-19 18:16 47.545842 -114.115678 217 4789ft 153kts
22-Mar-19 18:17 47.512663 -114.149027 211 8017ft 148kts
22-Mar-19 18:18 47.476629 -114.181028 212 10674ft 157kts
22-Mar-19 18:19 47.438012 -114.215114 213 13033ft 165kts
22-Mar-19 18:20 47.398376 -114.249889 212 15157ft 168kts
22-Mar-19 18:21 47.356355 -114.286647 212 16475ft 202kts
22-Mar-19 18:22 47.300440 -114.335630 212 16449ft 253kts
22-Mar-19 18:23 47.237836 -114.390360 212 16445ft 265kts
22-Mar-19 18:24 47.173808 -114.446090 212 16444ft 268kts
22-Mar-19 18:25 47.109564 -114.501865 212 16444ft 269kts
22-Mar-19 18:26 47.044833 -114.557922 212 16443ft 269kts
22-Mar-19 18:27 46.979942 -114.613919 212 16443ft 269kts
22-Mar-19 18:28 46.915548 -114.669326 212 16445ft 269kts
22-Mar-19 18:29 46.850895 -114.724797 212 16445ft 270kts
22-Mar-19 18:30 46.786044 -114.780282 212 16445ft 270kts
22-Mar-19 18:31 46.720893 -114.835865 212 16445ft 270kts
22-Mar-19 18:32 46.656042 -114.891038 212 16445ft 270kts
22-Mar-19 18:33 46.590803 -114.946380 212 16445ft 270kts
22-Mar-19 18:34 46.525318 -115.001819 212 16494ft 277kts
22-Mar-19 18:35 46.457951 -115.058632 212 16513ft 279kts
22-Mar-19 18:36 46.391008 -115.114914 212 16532ft 278kts
22-Mar-19 18:37 46.324293 -115.170850 212 16551ft 275kts
22-Mar-19 18:38 46.258096 -115.226209 212 16563ft 273kts
22-Mar-19 18:39 46.192340 -115.281029 212 16544ft 270kts
22-Mar-19 18:40 46.126999 -115.335329 212 15974ft 269kts
22-Mar-19 18:41 46.062386 -115.388873 212 15289ft 266kts
22-Mar-19 18:42 45.998542 -115.441699 212 14684ft 263kts
22-Mar-19 18:43 45.935004 -115.494365 212 14563ft 264kts
22-Mar-19 18:44 45.871458 -115.546587 212 14562ft 265kts
22-Mar-19 18:45 45.807188 -115.599292 212 14562ft 265kts
22-Mar-19 18:46 45.743212 -115.651642 211 14562ft 265kts
22-Mar-19 18:47 45.679233 -115.703863 211 14564ft 266kts
22-Mar-19 18:48 45.615178 -115.756000 211 14564ft 266kts
22-Mar-19 18:49 45.555867 -115.819177 225 14563ft 263kts
22-Mar-19 18:50 45.506049 -115.894524 230 14564ft 263kts
22-Mar-19 18:51 45.457927 -115.972445 230 14564ft 263kts
22-Mar-19 18:52 45.434479 -116.066175 266 14356ft 257kts
22-Mar-19 18:53 45.443954 -116.167930 287 12976ft 263kts
22-Mar-19 18:54 45.455185 -116.266213 252 11803ft 252kts
22-Mar-19 18:55 45.424574 -116.323571 113 9799ft 246kts
22-Mar-19 18:56 45.442555 -116.325266 209 7711ft 235kts
22-Mar-19 18:57 45.376337 -116.341310 197 4865ft 239kts
22-Mar-19 18:58 45.309698 -116.359876 179 4499ft 251kts
22-Mar-19 18:59 45.246000 -116.334035 160 5089ft 223kts
22-Mar-19 19:00 45.186508 -116.323172 199 6389ft 229kts
22-Mar-19 19:01 45.122553 -116.345003 188 6494ft 241kts
22-Mar-19 19:02 45.056007 -116.361133 192 6583ft 244kts
22-Mar-19 19:03 44.988944 -116.379888 192 6582ft 245kts
22-Mar-19 19:04 44.923253 -116.398213 192 6578ft 231kts
22-Mar-19 19:05 44.866420 -116.416198 189 6026ft 192kts
22-Mar-19 19:06 44.821247 -116.427926 193 4727ft 150kts
22-Mar-19 19:07 44.784333 -116.437136 190 3866ft 126kts
22-Mar-19 19:08 44.751501 -116.444825 191 2955ft 105kts
22-Mar-19 19:09 44.745789 -116.446790 180 2942ft 0kts
22-Mar-19 19:10 44.745789 -116.446790 180 2942ft 0kts
22-Mar-19 19:11 44.745789 -116.446790 180 2942ft 0kts
22-Mar-19 19:12 44.745789 -116.446790 180 2942ft 0kts
22-Mar-19 19:13 44.745789 -116.446790 180 2942ft 0kts

Navigation Log

Ident Type
Flight plan parsing failed, navigation log unavailable